sensor_id;sensor_type;location;lat;lon;timestamp;pressure;altitude;pressure_sealevel;temperature;humidity
7333;BME280;3707;43.618;25.342;2024-01-10T00:01:15;101929.22;;;-4.41;100.00
7333;BME280;3707;43.618;25.342;2024-01-10T00:03:42;101935.56;;;-4.29;100.00
7333;BME280;3707;43.618;25.342;2024-01-10T00:06:10;101929.66;;;-4.21;100.00
7333;BME280;3707;43.618;25.342;2024-01-10T00:08:37;101933.56;;;-4.40;100.00
7333;BME280;3707;43.618;25.342;2024-01-10T00:11:05;101938.09;;;-4.29;100.00
7333;BME280;3707;43.618;25.342;2024-01-10T00:13:32;101941.41;;;-4.22;100.00
7333;BME280;3707;43.618;25.342;2024-01-10T00:15:59;101930.22;;;-4.24;100.00
7333;BME280;3707;43.618;25.342;2024-01-10T00:18:26;101928.16;;;-4.19;100.00
7333;BME280;3707;43.618;25.342;2024-01-10T00:20:53;101947.28;;;-4.14;100.00
7333;BME280;3707;43.618;25.342;2024-01-10T00:23:20;101937.25;;;-4.21;100.00
7333;BME280;3707;43.618;25.342;2024-01-10T00:25:47;101939.78;;;-4.21;100.00
7333;BME280;3707;43.618;25.342;2024-01-10T00:28:15;101945.56;;;-4.22;100.00
7333;BME280;3707;43.618;25.342;2024-01-10T00:30:43;101947.03;;;-4.24;100.00
7333;BME280;3707;43.618;25.342;2024-01-10T00:33:10;101942.47;;;-4.20;100.00
7333;BME280;3707;43.618;25.342;2024-01-10T00:35:37;101929.28;;;-4.33;100.00
7333;BME280;3707;43.618;25.342;2024-01-10T00:38:04;101937.88;;;-4.39;100.00
7333;BME280;3707;43.618;25.342;2024-01-10T00:40:31;101955.19;;;-4.35;100.00
7333;BME280;3707;43.618;25.342;2024-01-10T00:42:58;101947.63;;;-4.27;100.00
7333;BME280;3707;43.618;25.342;2024-01-10T00:45:26;101926.59;;;-4.34;100.00
7333;BME280;3707;43.618;25.342;2024-01-10T00:47:53;101915.66;;;-4.42;100.00
7333;BME280;3707;43.618;25.342;2024-01-10T00:50:19;101954.53;;;-4.17;100.00
7333;BME280;3707;43.618;25.342;2024-01-10T00:52:46;101949.00;;;-4.22;100.00
7333;BME280;3707;43.618;25.342;2024-01-10T00:55:13;101929.28;;;-4.33;100.00
7333;BME280;3707;43.618;25.342;2024-01-10T00:57:39;101950.94;;;-4.19;100.00
7333;BME280;3707;43.618;25.342;2024-01-10T01:00:07;101946.50;;;-4.13;100.00
7333;BME280;3707;43.618;25.342;2024-01-10T01:02:35;101947.28;;;-4.06;100.00
7333;BME280;3707;43.618;25.342;2024-01-10T01:05:05;101916.81;;;-4.23;100.00
7333;BME280;3707;43.618;25.342;2024-01-10T01:07:32;101939.19;;;-4.19;100.00
7333;BME280;3707;43.618;25.342;2024-01-10T01:09:59;101930.59;;;-4.12;100.00
7333;BME280;3707;43.618;25.342;2024-01-10T01:12:26;101950.41;;;-4.08;100.00
7333;BME280;3707;43.618;25.342;2024-01-10T01:14:53;101918.16;;;-4.26;100.00
7333;BME280;3707;43.618;25.342;2024-01-10T01:17:20;101935.94;;;-4.18;100.00
7333;BME280;3707;43.618;25.342;2024-01-10T01:19:48;101937.91;;;-4.31;100.00
7333;BME280;3707;43.618;25.342;2024-01-10T01:22:15;101943.16;;;-4.54;100.00
7333;BME280;3707;43.618;25.342;2024-01-10T01:24:42;101935.72;;;-4.52;100.00
7333;BME280;3707;43.618;25.342;2024-01-10T01:27:09;101920.06;;;-4.57;100.00
7333;BME280;3707;43.618;25.342;2024-01-10T01:29:35;101933.38;;;-4.42;100.00
7333;BME280;3707;43.618;25.342;2024-01-10T01:32:03;101900.88;;;-4.55;100.00
7333;BME280;3707;43.618;25.342;2024-01-10T01:34:30;101937.00;;;-4.40;100.00
7333;BME280;3707;43.618;25.342;2024-01-10T01:36:58;101928.06;;;-4.36;100.00
7333;BME280;3707;43.618;25.342;2024-01-10T01:39:26;101927.44;;;-4.42;100.00
7333;BME280;3707;43.618;25.342;2024-01-10T01:41:53;101923.84;;;-4.44;100.00
7333;BME280;3707;43.618;25.342;2024-01-10T01:44:20;101923.44;;;-4.40;100.00
7333;BME280;3707;43.618;25.342;2024-01-10T01:46:47;101922.72;;;-4.39;100.00
7333;BME280;3707;43.618;25.342;2024-01-10T01:49:14;101908.28;;;-4.56;100.00
7333;BME280;3707;43.618;25.342;2024-01-10T01:51:42;101919.00;;;-4.59;100.00
7333;BME280;3707;43.618;25.342;2024-01-10T01:54:10;101917.94;;;-4.36;100.00
7333;BME280;3707;43.618;25.342;2024-01-10T01:56:39;101921.31;;;-4.44;100.00
7333;BME280;3707;43.618;25.342;2024-01-10T01:59:06;101901.19;;;-4.52;100.00
7333;BME280;3707;43.618;25.342;2024-01-10T02:01:33;101883.56;;;-4.59;100.00
7333;BME280;3707;43.618;25.342;2024-01-10T02:04:01;101922.53;;;-4.41;100.00
7333;BME280;3707;43.618;25.342;2024-01-10T02:06:28;101914.44;;;-4.45;100.00
7333;BME280;3707;43.618;25.342;2024-01-10T02:08:55;101916.75;;;-4.40;100.00
7333;BME280;3707;43.618;25.342;2024-01-10T02:11:24;101921.41;;;-4.27;100.00
7333;BME280;3707;43.618;25.342;2024-01-10T02:13:51;101918.44;;;-4.32;100.00
7333;BME280;3707;43.618;25.342;2024-01-10T02:16:19;101913.09;;;-4.26;100.00
7333;BME280;3707;43.618;25.342;2024-01-10T02:18:48;101905.78;;;-4.23;100.00
7333;BME280;3707;43.618;25.342;2024-01-10T02:21:15;101904.91;;;-4.24;100.00
7333;BME280;3707;43.618;25.342;2024-01-10T02:23:42;101905.06;;;-4.22;100.00
7333;BME280;3707;43.618;25.342;2024-01-10T02:26:10;101904.91;;;-4.24;100.00
7333;BME280;3707;43.618;25.342;2024-01-10T02:28:36;101879.66;;;-4.39;100.00
7333;BME280;3707;43.618;25.342;2024-01-10T02:31:03;101884.94;;;-4.29;100.00
7333;BME280;3707;43.618;25.342;2024-01-10T02:33:32;101902.31;;;-4.08;100.00
7333;BME280;3707;43.618;25.342;2024-01-10T02:35:58;101902.22;;;-4.25;100.00
7333;BME280;3707;43.618;25.342;2024-01-10T02:38:25;101901.31;;;-4.26;100.00
7333;BME280;3707;43.618;25.342;2024-01-10T02:40:52;101897.47;;;-4.22;100.00
7333;BME280;3707;43.618;25.342;2024-01-10T02:43:22;101896.28;;;-4.17;100.00
7333;BME280;3707;43.618;25.342;2024-01-10T02:45:49;101895.41;;;-4.18;100.00
7333;BME280;3707;43.618;25.342;2024-01-10T02:48:16;101897.59;;;-4.21;100.00
7333;BME280;3707;43.618;25.342;2024-01-10T02:50:42;101887.34;;;-4.22;100.00
7333;BME280;3707;43.618;25.342;2024-01-10T02:53:09;101894.94;;;-4.22;100.00
7333;BME280;3707;43.618;25.342;2024-01-10T02:55:36;101895.78;;;-4.30;100.00
7333;BME280;3707;43.618;25.342;2024-01-10T02:58:03;101898.63;;;-4.27;100.00
7333;BME280;3707;43.618;25.342;2024-01-10T03:00:31;101896.69;;;-4.30;100.00
7333;BME280;3707;43.618;25.342;2024-01-10T03:02:58;101871.88;;;-4.49;100.00
7333;BME280;3707;43.618;25.342;2024-01-10T03:05:25;101886.38;;;-4.31;100.00
7333;BME280;3707;43.618;25.342;2024-01-10T03:07:52;101877.75;;;-4.33;100.00
7333;BME280;3707;43.618;25.342;2024-01-10T03:10:18;101884.31;;;-4.35;100.00
7333;BME280;3707;43.618;25.342;2024-01-10T03:12:45;101886.72;;;-4.28;100.00
7333;BME280;3707;43.618;25.342;2024-01-10T03:15:12;101864.41;;;-4.48;100.00
7333;BME280;3707;43.618;25.342;2024-01-10T03:17:40;101883.13;;;-4.30;100.00
7333;BME280;3707;43.618;25.342;2024-01-10T03:20:07;101855.94;;;-4.48;100.00
7333;BME280;3707;43.618;25.342;2024-01-10T03:22:35;101883.41;;;-4.36;100.00
7333;BME280;3707;43.618;25.342;2024-01-10T03:25:02;101881.00;;;-4.43;100.00
7333;BME280;3707;43.618;25.342;2024-01-10T03:27:28;101880.50;;;-4.47;100.00
7333;BME280;3707;43.618;25.342;2024-01-10T03:29:55;101878.28;;;-4.44;100.00
7333;BME280;3707;43.618;25.342;2024-01-10T03:32:22;101886.31;;;-4.48;100.00
7333;BME280;3707;43.618;25.342;2024-01-10T03:34:50;101878.88;;;-4.47;100.00
7333;BME280;3707;43.618;25.342;2024-01-10T03:37:17;101873.44;;;-4.59;100.00
7333;BME280;3707;43.618;25.342;2024-01-10T03:39:44;101884.84;;;-4.46;100.00
7333;BME280;3707;43.618;25.342;2024-01-10T03:42:11;101855.13;;;-4.65;100.00
7333;BME280;3707;43.618;25.342;2024-01-10T03:44:38;101882.72;;;-4.51;100.00
7333;BME280;3707;43.618;25.342;2024-01-10T03:47:05;101870.69;;;-4.44;100.00
7333;BME280;3707;43.618;25.342;2024-01-10T03:49:31;101883.47;;;-4.52;100.00
7333;BME280;3707;43.618;25.342;2024-01-10T03:52:00;101877.06;;;-4.48;100.00
7333;BME280;3707;43.618;25.342;2024-01-10T03:54:26;101877.78;;;-4.58;100.00
7333;BME280;3707;43.618;25.342;2024-01-10T03:56:53;101879.47;;;-4.49;100.00
7333;BME280;3707;43.618;25.342;2024-01-10T03:59:20;101875.16;;;-4.42;100.00
7333;BME280;3707;43.618;25.342;2024-01-10T04:01:47;101875.66;;;-4.37;100.00
7333;BME280;3707;43.618;25.342;2024-01-10T04:04:13;101874.59;;;-4.39;100.00
7333;BME280;3707;43.618;25.342;2024-01-10T04:06:40;101875.34;;;-4.40;100.00
7333;BME280;3707;43.618;25.342;2024-01-10T04:09:08;101859.06;;;-4.51;100.00
7333;BME280;3707;43.618;25.342;2024-01-10T04:11:36;101884.31;;;-4.35;100.00
7333;BME280;3707;43.618;25.342;2024-01-10T04:14:03;101876.84;;;-4.42;100.00
7333;BME280;3707;43.618;25.342;2024-01-10T04:16:31;101856.22;;;-4.54;100.00
7333;BME280;3707;43.618;25.342;2024-01-10T04:18:57;101885.03;;;-4.36;100.00
7333;BME280;3707;43.618;25.342;2024-01-10T04:21:24;101883.63;;;-4.50;100.00
7333;BME280;3707;43.618;25.342;2024-01-10T04:23:51;101892.13;;;-4.49;100.00
7333;BME280;3707;43.618;25.342;2024-01-10T04:26:19;101895.81;;;-4.55;100.00
7333;BME280;3707;43.618;25.342;2024-01-10T04:28:46;101895.41;;;-4.42;100.00
7333;BME280;3707;43.618;25.342;2024-01-10T04:31:13;101892.56;;;-4.45;100.00
7333;BME280;3707;43.618;25.342;2024-01-10T04:33:40;101887.16;;;-4.57;100.00
7333;BME280;3707;43.618;25.342;2024-01-10T04:36:07;101899.38;;;-4.53;100.00
7333;BME280;3707;43.618;25.342;2024-01-10T04:38:34;101902.97;;;-4.51;100.00
7333;BME280;3707;43.618;25.342;2024-01-10T04:41:00;101900.56;;;-4.58;100.00
7333;BME280;3707;43.618;25.342;2024-01-10T04:43:28;101892.56;;;-4.45;100.00
7333;BME280;3707;43.618;25.342;2024-01-10T04:45:55;101895.38;;;-4.51;100.00
7333;BME280;3707;43.618;25.342;2024-01-10T04:48:22;101897.38;;;-4.39;100.00
7333;BME280;3707;43.618;25.342;2024-01-10T04:50:49;101900.47;;;-4.42;100.00
7333;BME280;3707;43.618;25.342;2024-01-10T04:53:15;101887.81;;;-4.42;100.00
7333;BME280;3707;43.618;25.342;2024-01-10T04:55:42;101797.09;;;-4.87;100.00
7333;BME280;3707;43.618;25.342;2024-01-10T04:58:09;101905.97;;;-4.22;100.00
7333;BME280;3707;43.618;25.342;2024-01-10T05:00:37;101889.38;;;-4.35;100.00
7333;BME280;3707;43.618;25.342;2024-01-10T05:03:04;101897.09;;;-4.42;100.00
7333;BME280;3707;43.618;25.342;2024-01-10T05:05:31;101905.78;;;-4.23;100.00
7333;BME280;3707;43.618;25.342;2024-01-10T05:07:58;101903.38;;;-4.30;100.00
7333;BME280;3707;43.618;25.342;2024-01-10T05:10:26;101904.09;;;-4.31;100.00
7333;BME280;3707;43.618;25.342;2024-01-10T05:12:53;101792.72;;;-4.97;100.00
7333;BME280;3707;43.618;25.342;2024-01-10T05:15:20;101903.00;;;-4.42;100.00
7333;BME280;3707;43.618;25.342;2024-01-10T05:17:51;101906.91;;;-4.37;100.00
7333;BME280;3707;43.618;25.342;2024-01-10T05:20:19;101909.63;;;-4.35;100.00
7333;BME280;3707;43.618;25.342;2024-01-10T05:22:46;101907.50;;;-4.39;100.00
7333;BME280;3707;43.618;25.342;2024-01-10T05:25:12;101902.25;;;-4.49;100.00
7333;BME280;3707;43.618;25.342;2024-01-10T05:27:39;101911.38;;;-4.43;100.00
7333;BME280;3707;43.618;25.342;2024-01-10T05:30:07;101908.41;;;-4.39;100.00
7333;BME280;3707;43.618;25.342;2024-01-10T05:32:34;101888.69;;;-4.50;100.00
7333;BME280;3707;43.618;25.342;2024-01-10T05:35:03;101880.50;;;-4.47;100.00
7333;BME280;3707;43.618;25.342;2024-01-10T05:37:30;101905.28;;;-4.36;100.00
7333;BME280;3707;43.618;25.342;2024-01-10T05:39:58;101905.78;;;-4.32;100.00
7333;BME280;3707;43.618;25.342;2024-01-10T05:42:26;101906.19;;;-4.36;100.00
7333;BME280;3707;43.618;25.342;2024-01-10T05:44:53;101828.53;;;-4.77;100.00
7333;BME280;3707;43.618;25.342;2024-01-10T05:47:19;101907.22;;;-4.34;100.00
7333;BME280;3707;43.618;25.342;2024-01-10T05:49:46;101898.94;;;-4.24;100.00
7333;BME280;3707;43.618;25.342;2024-01-10T05:52:14;101882.69;;;-4.26;100.00
7333;BME280;3707;43.618;25.342;2024-01-10T05:54:41;101896.50;;;-4.31;100.00
7333;BME280;3707;43.618;25.342;2024-01-10T05:57:08;101908.81;;;-4.19;100.00
7333;BME280;3707;43.618;25.342;2024-01-10T05:59:35;101902.84;;;-4.19;100.00
7333;BME280;3707;43.618;25.342;2024-01-10T06:02:02;101895.66;;;-4.23;100.00
7333;BME280;3707;43.618;25.342;2024-01-10T06:04:30;101898.97;;;-4.16;100.00
7333;BME280;3707;43.618;25.342;2024-01-10T06:06:57;101903.75;;;-4.19;100.00
7333;BME280;3707;43.618;25.342;2024-01-10T06:09:26;101903.94;;;-4.09;100.00
7333;BME280;3707;43.618;25.342;2024-01-10T06:11:53;101906.28;;;-4.10;100.00
7333;BME280;3707;43.618;25.342;2024-01-10T06:14:19;101907.31;;;-4.17;100.00
7333;BME280;3707;43.618;25.342;2024-01-10T06:16:46;101911.69;;;-4.07;100.00
7333;BME280;3707;43.618;25.342;2024-01-10T06:19:13;101905.44;;;-3.61;100.00
7333;BME280;3707;43.618;25.342;2024-01-10T06:21:40;101910.69;;;-3.92;100.00
7333;BME280;3707;43.618;25.342;2024-01-10T06:24:07;101918.25;;;-3.68;100.00
7333;BME280;3707;43.618;25.342;2024-01-10T06:26:36;101917.34;;;-3.68;100.00
7333;BME280;3707;43.618;25.342;2024-01-10T06:29:03;101908.50;;;-3.89;100.00
7333;BME280;3707;43.618;25.342;2024-01-10T06:31:29;101920.81;;;-3.92;100.00
7333;BME280;3707;43.618;25.342;2024-01-10T06:33:56;101922.63;;;-3.99;100.00
7333;BME280;3707;43.618;25.342;2024-01-10T06:36:23;101921.91;;;-3.90;100.00
7333;BME280;3707;43.618;25.342;2024-01-10T06:38:50;101888.50;;;-3.94;100.00
7333;BME280;3707;43.618;25.342;2024-01-10T06:41:17;101909.38;;;-3.88;100.00
7333;BME280;3707;43.618;25.342;2024-01-10T06:43:50;101912.56;;;-3.74;100.00
7333;BME280;3707;43.618;25.342;2024-01-10T06:46:18;101929.84;;;-3.78;100.00
7333;BME280;3707;43.618;25.342;2024-01-10T06:48:45;101937.00;;;-3.74;100.00
7333;BME280;3707;43.618;25.342;2024-01-10T06:51:13;101937.63;;;-3.68;100.00
7333;BME280;3707;43.618;25.342;2024-01-10T06:53:40;101944.44;;;-3.76;100.00
7333;BME280;3707;43.618;25.342;2024-01-10T06:56:07;101878.91;;;-4.06;100.00
7333;BME280;3707;43.618;25.342;2024-01-10T06:58:35;101903.91;;;-3.67;100.00
7333;BME280;3707;43.618;25.342;2024-01-10T07:01:03;101896.19;;;-3.69;100.00
7333;BME280;3707;43.618;25.342;2024-01-10T07:03:30;101897.00;;;-3.94;100.00
7333;BME280;3707;43.618;25.342;2024-01-10T07:05:57;101898.28;;;-3.65;100.00
7333;BME280;3707;43.618;25.342;2024-01-10T07:08:25;101942.19;;;-3.31;100.00
7333;BME280;3707;43.618;25.342;2024-01-10T07:10:52;101935.47;;;-3.31;100.00
7333;BME280;3707;43.618;25.342;2024-01-10T07:13:21;101938.19;;;-2.78;100.00
7333;BME280;3707;43.618;25.342;2024-01-10T07:15:47;101934.47;;;-2.90;100.00
7333;BME280;3707;43.618;25.342;2024-01-10T07:18:17;101918.66;;;-3.05;100.00
7333;BME280;3707;43.618;25.342;2024-01-10T07:20:44;101940.13;;;-2.92;100.00
7333;BME280;3707;43.618;25.342;2024-01-10T07:23:11;101939.25;;;-3.02;100.00
7333;BME280;3707;43.618;25.342;2024-01-10T07:25:37;101939.13;;;-2.07;100.00
7333;BME280;3707;43.618;25.342;2024-01-10T07:28:05;101948.66;;;-2.58;100.00
7333;BME280;3707;43.618;25.342;2024-01-10T07:30:32;101947.31;;;-2.71;100.00
7333;BME280;3707;43.618;25.342;2024-01-10T07:32:59;101949.09;;;-2.70;100.00
7333;BME280;3707;43.618;25.342;2024-01-10T07:35:27;101947.44;;;-2.70;100.00
7333;BME280;3707;43.618;25.342;2024-01-10T07:37:54;101951.47;;;-2.63;100.00
7333;BME280;3707;43.618;25.342;2024-01-10T07:40:21;101955.97;;;-2.61;100.00
7333;BME280;3707;43.618;25.342;2024-01-10T07:42:49;101950.44;;;-2.74;100.00
7333;BME280;3707;43.618;25.342;2024-01-10T07:45:16;101964.00;;;-2.56;100.00
7333;BME280;3707;43.618;25.342;2024-01-10T07:47:42;101958.31;;;-2.36;100.00
7333;BME280;3707;43.618;25.342;2024-01-10T07:50:10;101952.63;;;-2.25;100.00
7333;BME280;3707;43.618;25.342;2024-01-10T07:52:41;101956.53;;;-2.46;100.00
7333;BME280;3707;43.618;25.342;2024-01-10T07:55:09;101960.69;;;-2.38;100.00
7333;BME280;3707;43.618;25.342;2024-01-10T07:57:36;101960.41;;;-2.32;100.00
7333;BME280;3707;43.618;25.342;2024-01-10T08:00:03;101958.56;;;-2.16;100.00
7333;BME280;3707;43.618;25.342;2024-01-10T08:02:30;101971.44;;;-2.23;100.00
7333;BME280;3707;43.618;25.342;2024-01-10T08:04:59;101975.16;;;-2.20;100.00
7333;BME280;3707;43.618;25.342;2024-01-10T08:07:26;101964.84;;;-2.13;100.00
7333;BME280;3707;43.618;25.342;2024-01-10T08:09:54;101969.84;;;-1.87;100.00
7333;BME280;3707;43.618;25.342;2024-01-10T08:12:21;101968.38;;;-1.93;100.00
7333;BME280;3707;43.618;25.342;2024-01-10T08:14:47;101976.34;;;-2.08;100.00
7333;BME280;3707;43.618;25.342;2024-01-10T08:17:15;101980.38;;;-2.10;100.00
7333;BME280;3707;43.618;25.342;2024-01-10T08:19:42;101929.00;;;-2.24;100.00
7333;BME280;3707;43.618;25.342;2024-01-10T08:22:09;101973.81;;;-2.08;100.00
7333;BME280;3707;43.618;25.342;2024-01-10T08:24:35;101979.84;;;-1.88;100.00
7333;BME280;3707;43.618;25.342;2024-01-10T08:27:04;101985.50;;;-1.74;97.49
7333;BME280;3707;43.618;25.342;2024-01-10T08:29:30;101983.09;;;-1.72;98.30
7333;BME280;3707;43.618;25.342;2024-01-10T08:31:57;101974.84;;;-1.70;97.29
7333;BME280;3707;43.618;25.342;2024-01-10T08:34:24;101979.38;;;-1.76;95.30
7333;BME280;3707;43.618;25.342;2024-01-10T08:36:52;101962.50;;;-1.84;94.05
7333;BME280;3707;43.618;25.342;2024-01-10T08:39:19;101944.53;;;-1.77;93.44
7333;BME280;3707;43.618;25.342;2024-01-10T08:41:47;101977.22;;;-1.63;93.14
7333;BME280;3707;43.618;25.342;2024-01-10T08:44:15;101975.66;;;-1.43;90.28
7333;BME280;3707;43.618;25.342;2024-01-10T08:46:42;101925.34;;;-1.65;89.78
7333;BME280;3707;43.618;25.342;2024-01-10T08:49:09;101947.34;;;-1.74;88.77
7333;BME280;3707;43.618;25.342;2024-01-10T08:51:36;101977.59;;;-1.77;85.22
7333;BME280;3707;43.618;25.342;2024-01-10T08:54:03;101954.50;;;-1.97;85.21
7333;BME280;3707;43.618;25.342;2024-01-10T08:56:30;101976.38;;;-1.72;85.30
7333;BME280;3707;43.618;25.342;2024-01-10T08:58:56;101972.84;;;-1.91;86.21
7333;BME280;3707;43.618;25.342;2024-01-10T09:01:25;101956.06;;;-1.80;84.24
7333;BME280;3707;43.618;25.342;2024-01-10T09:03:51;101946.78;;;-1.80;82.89
7333;BME280;3707;43.618;25.342;2024-01-10T09:06:18;101968.44;;;-1.75;82.43
7333;BME280;3707;43.618;25.342;2024-01-10T09:08:46;101961.16;;;-1.89;79.17
7333;BME280;3707;43.618;25.342;2024-01-10T09:11:13;101961.59;;;-1.76;79.27
7333;BME280;3707;43.618;25.342;2024-01-10T09:13:40;101964.69;;;-1.70;79.80
7333;BME280;3707;43.618;25.342;2024-01-10T09:16:06;101947.81;;;-1.78;78.16
7333;BME280;3707;43.618;25.342;2024-01-10T09:18:36;101948.16;;;-1.56;76.40
7333;BME280;3707;43.618;25.342;2024-01-10T09:21:04;101949.13;;;-1.37;77.44
7333;BME280;3707;43.618;25.342;2024-01-10T09:23:31;101925.09;;;-1.49;77.42
7333;BME280;3707;43.618;25.342;2024-01-10T09:25:57;101938.56;;;-1.23;74.64
7333;BME280;3707;43.618;25.342;2024-01-10T09:28:24;101929.75;;;-1.26;73.22
7333;BME280;3707;43.618;25.342;2024-01-10T09:30:51;101930.75;;;-1.24;71.26
7333;BME280;3707;43.618;25.342;2024-01-10T09:33:19;101933.97;;;-1.08;69.86
7333;BME280;3707;43.618;25.342;2024-01-10T09:35:49;101937.06;;;-1.02;70.17
7333;BME280;3707;43.618;25.342;2024-01-10T09:38:15;101837.84;;;-1.67;69.38
7333;BME280;3707;43.618;25.342;2024-01-10T09:40:43;101939.94;;;-0.89;69.93
7333;BME280;3707;43.618;25.342;2024-01-10T09:43:10;101938.72;;;-0.84;67.54
7333;BME280;3707;43.618;25.342;2024-01-10T09:45:42;101931.13;;;-0.74;64.67
7333;BME280;3707;43.618;25.342;2024-01-10T09:48:13;101933.19;;;-0.70;65.29
7333;BME280;3707;43.618;25.342;2024-01-10T09:50:40;101916.00;;;-0.91;65.00
7333;BME280;3707;43.618;25.342;2024-01-10T09:53:13;101933.56;;;-0.94;66.67
7333;BME280;3707;43.618;25.342;2024-01-10T09:55:43;101926.72;;;-0.85;67.46
7333;BME280;3707;43.618;25.342;2024-01-10T09:58:11;101926.47;;;-0.88;64.51
7333;BME280;3707;43.618;25.342;2024-01-10T10:00:39;101928.31;;;-0.95;64.40
7333;BME280;3707;43.618;25.342;2024-01-10T10:03:07;101931.63;;;-0.96;64.73
7333;BME280;3707;43.618;25.342;2024-01-10T10:05:36;101880.72;;;-0.96;63.54
7333;BME280;3707;43.618;25.342;2024-01-10T10:08:06;101882.53;;;-1.14;64.39
7333;BME280;3707;43.618;25.342;2024-01-10T10:10:36;101889.91;;;-0.88;65.14
7333;BME280;3707;43.618;25.342;2024-01-10T10:13:08;101920.03;;;-0.56;64.47
7333;BME280;3707;43.618;25.342;2024-01-10T10:15:36;101909.97;;;-0.54;64.51
7333;BME280;3707;43.618;25.342;2024-01-10T10:18:03;101884.78;;;-0.51;63.99
7333;BME280;3707;43.618;25.342;2024-01-10T10:20:31;101902.59;;;-0.51;62.83
7333;BME280;3707;43.618;25.342;2024-01-10T10:23:02;101800.34;;;-1.03;62.29
7333;BME280;3707;43.618;25.342;2024-01-10T10:25:30;101892.09;;;-0.35;62.86
7333;BME280;3707;43.618;25.342;2024-01-10T10:28:00;101832.41;;;-0.58;64.90
7333;BME280;3707;43.618;25.342;2024-01-10T10:30:27;101889.38;;;-0.08;63.24
7333;BME280;3707;43.618;25.342;2024-01-10T10:32:54;101848.00;;;-0.34;62.00
7333;BME280;3707;43.618;25.342;2024-01-10T10:35:21;101866.03;;;-0.13;61.67
7333;BME280;3707;43.618;25.342;2024-01-10T10:37:48;101871.22;;;-0.21;60.84
7333;BME280;3707;43.618;25.342;2024-01-10T10:40:16;101851.31;;;-0.35;60.05
7333;BME280;3707;43.618;25.342;2024-01-10T10:42:45;101871.53;;;-0.18;59.45
7333;BME280;3707;43.618;25.342;2024-01-10T10:45:15;101866.19;;;-0.11;58.18
7333;BME280;3707;43.618;25.342;2024-01-10T10:47:44;101845.97;;;-0.28;57.69
7333;BME280;3707;43.618;25.342;2024-01-10T10:50:13;101856.09;;;-0.10;55.48
7333;BME280;3707;43.618;25.342;2024-01-10T10:52:42;101845.03;;;-0.49;53.17
7333;BME280;3707;43.618;25.342;2024-01-10T10:55:14;101842.66;;;-0.37;53.79
7333;BME280;3707;43.618;25.342;2024-01-10T10:57:43;101851.47;;;-0.24;55.12
7333;BME280;3707;43.618;25.342;2024-01-10T11:00:14;101857.88;;;-0.19;54.76
7333;BME280;3707;43.618;25.342;2024-01-10T11:02:42;101857.25;;;-0.06;55.05
7333;BME280;3707;43.618;25.342;2024-01-10T11:05:10;101839.66;;;-0.03;55.20
7333;BME280;3707;43.618;25.342;2024-01-10T11:07:37;101840.28;;;-0.16;54.80
7333;BME280;3707;43.618;25.342;2024-01-10T11:10:08;101827.41;;;-0.07;59.53
7333;BME280;3707;43.618;25.342;2024-01-10T11:13:24;101841.22;;;0.05;56.92
7333;BME280;3707;43.618;25.342;2024-01-10T11:16:24;101842.69;;;-0.17;55.56
7333;BME280;3707;43.618;25.342;2024-01-10T11:19:08;101838.22;;;-0.30;55.49
7333;BME280;3707;43.618;25.342;2024-01-10T11:21:50;101824.63;;;-0.10;57.67
7333;BME280;3707;43.618;25.342;2024-01-10T11:24:24;101810.59;;;-0.15;57.10
7333;BME280;3707;43.618;25.342;2024-01-10T11:27:06;101804.66;;;-0.44;57.62
7333;BME280;3707;43.618;25.342;2024-01-10T11:29:37;101815.34;;;-0.48;59.66
7333;BME280;3707;43.618;25.342;2024-01-10T11:32:06;101818.41;;;-0.42;58.76
7333;BME280;3707;43.618;25.342;2024-01-10T11:34:35;101764.78;;;-0.93;59.05
7333;BME280;3707;43.618;25.342;2024-01-10T11:37:11;101788.53;;;-0.74;59.01
7333;BME280;3707;43.618;25.342;2024-01-10T11:39:41;101817.06;;;-0.68;58.90
7333;BME280;3707;43.618;25.342;2024-01-10T11:42:09;101820.44;;;-0.48;59.34
7333;BME280;3707;43.618;25.342;2024-01-10T11:44:46;101809.63;;;-0.46;60.63
7333;BME280;3707;43.618;25.342;2024-01-10T11:47:15;101790.63;;;-0.50;62.51
7333;BME280;3707;43.618;25.342;2024-01-10T11:49:54;101753.75;;;-0.83;61.75
7333;BME280;3707;43.618;25.342;2024-01-10T11:52:22;101796.75;;;-0.58;63.00
7333;BME280;3707;43.618;25.342;2024-01-10T11:54:49;101795.00;;;-0.38;63.65
7333;BME280;3707;43.618;25.342;2024-01-10T11:57:20;101790.72;;;-0.19;65.09
7333;BME280;3707;43.618;25.342;2024-01-10T11:59:50;101792.09;;;-0.23;65.61
7333;BME280;3707;43.618;25.342;2024-01-10T12:02:19;101768.22;;;-0.54;67.51
7333;BME280;3707;43.618;25.342;2024-01-10T12:04:47;101780.84;;;-0.35;67.18
7333;BME280;3707;43.618;25.342;2024-01-10T12:07:15;101793.41;;;-0.57;65.21
7333;BME280;3707;43.618;25.342;2024-01-10T12:09:42;101778.78;;;-0.59;65.76
7333;BME280;3707;43.618;25.342;2024-01-10T12:12:09;101776.41;;;-0.37;66.61
7333;BME280;3707;43.618;25.342;2024-01-10T12:14:36;101791.69;;;-0.37;66.92
7333;BME280;3707;43.618;25.342;2024-01-10T12:17:05;101749.13;;;-0.38;65.88
7333;BME280;3707;43.618;25.342;2024-01-10T12:19:35;101773.13;;;-0.16;65.20
7333;BME280;3707;43.618;25.342;2024-01-10T12:22:03;101766.88;;;-0.20;63.81
7333;BME280;3707;43.618;25.342;2024-01-10T12:24:31;101745.31;;;-0.54;63.20
7333;BME280;3707;43.618;25.342;2024-01-10T12:26:58;101776.19;;;-0.20;63.33
7333;BME280;3707;43.618;25.342;2024-01-10T12:29:25;101784.38;;;-0.04;62.99
7333;BME280;3707;43.618;25.342;2024-01-10T12:31:53;101785.00;;;0.04;63.39
7333;BME280;3707;43.618;25.342;2024-01-10T12:34:20;101777.38;;;0.04;63.57
7333;BME280;3707;43.618;25.342;2024-01-10T12:36:49;101782.31;;;0.12;63.95
7333;BME280;3707;43.618;25.342;2024-01-10T12:39:16;101748.16;;;0.00;63.45
7333;BME280;3707;43.618;25.342;2024-01-10T12:41:43;101777.72;;;0.08;63.29
7333;BME280;3707;43.618;25.342;2024-01-10T12:44:11;101773.38;;;-0.03;64.32
7333;BME280;3707;43.618;25.342;2024-01-10T12:46:49;101762.69;;;-0.19;63.63
7333;BME280;3707;43.618;25.342;2024-01-10T12:49:18;101767.75;;;-0.29;64.35
7333;BME280;3707;43.618;25.342;2024-01-10T12:51:46;101767.25;;;-0.25;64.17
7333;BME280;3707;43.618;25.342;2024-01-10T12:54:15;101764.97;;;-0.32;77.91
7333;BME280;3707;43.618;25.342;2024-01-10T12:56:42;101761.63;;;-0.21;67.71